sensor_id;sensor_type;location;lat;lon;timestamp;temperature;humidity
9043;DHT22;4556;49.150;8.808;2022-09-03T00:01:30;17.30;99.90
9043;DHT22;4556;49.150;8.808;2022-09-03T00:04:05;17.30;99.90
9043;DHT22;4556;49.150;8.808;2022-09-03T00:06:39;17.30;99.90
9043;DHT22;4556;49.150;8.808;2022-09-03T00:09:23;17.40;99.90
9043;DHT22;4556;49.150;8.808;2022-09-03T00:11:57;17.40;99.90
9043;DHT22;4556;49.150;8.808;2022-09-03T00:14:33;17.30;99.90
9043;DHT22;4556;49.150;8.808;2022-09-03T00:17:04;17.40;99.90
9043;DHT22;4556;49.150;8.808;2022-09-03T00:19:35;17.30;99.90
9043;DHT22;4556;49.150;8.808;2022-09-03T00:22:09;17.40;99.90
9043;DHT22;4556;49.150;8.808;2022-09-03T00:24:41;17.30;99.90
9043;DHT22;4556;49.150;8.808;2022-09-03T00:27:13;17.30;99.90
9043;DHT22;4556;49.150;8.808;2022-09-03T00:29:45;17.30;99.90
9043;DHT22;4556;49.150;8.808;2022-09-03T00:32:23;17.40;99.90
9043;DHT22;4556;49.150;8.808;2022-09-03T00:34:56;18.80;99.90
9043;DHT22;4556;49.150;8.808;2022-09-03T00:37:31;17.30;99.90
9043;DHT22;4556;49.150;8.808;2022-09-03T00:40:02;17.40;99.90
9043;DHT22;4556;49.150;8.808;2022-09-03T00:42:41;17.40;99.90
9043;DHT22;4556;49.150;8.808;2022-09-03T00:45:22;17.50;99.90
9043;DHT22;4556;49.150;8.808;2022-09-03T00:48:03;17.30;99.90
9043;DHT22;4556;49.150;8.808;2022-09-03T00:50:44;17.30;99.90
9043;DHT22;4556;49.150;8.808;2022-09-03T00:53:18;17.20;99.90
9043;DHT22;4556;49.150;8.808;2022-09-03T00:55:55;17.10;99.90
9043;DHT22;4556;49.150;8.808;2022-09-03T00:58:43;17.20;99.90
9043;DHT22;4556;49.150;8.808;2022-09-03T01:01:17;17.10;99.90
9043;DHT22;4556;49.150;8.808;2022-09-03T01:03:53;17.10;99.90
9043;DHT22;4556;49.150;8.808;2022-09-03T01:06:31;17.10;99.90
9043;DHT22;4556;49.150;8.808;2022-09-03T01:09:16;17.00;99.90
9043;DHT22;4556;49.150;8.808;2022-09-03T01:11:55;17.00;99.90
9043;DHT22;4556;49.150;8.808;2022-09-03T01:14:35;17.00;99.90
9043;DHT22;4556;49.150;8.808;2022-09-03T01:17:13;17.00;99.90
9043;DHT22;4556;49.150;8.808;2022-09-03T01:20:04;17.00;99.90
9043;DHT22;4556;49.150;8.808;2022-09-03T01:25:39;16.90;99.90
9043;DHT22;4556;49.150;8.808;2022-09-03T01:28:22;16.80;99.90
9043;DHT22;4556;49.150;8.808;2022-09-03T01:30:56;16.80;99.90
9043;DHT22;4556;49.150;8.808;2022-09-03T01:33:29;16.80;99.90
9043;DHT22;4556;49.150;8.808;2022-09-03T01:36:03;16.90;99.90
9043;DHT22;4556;49.150;8.808;2022-09-03T01:38:50;14.30;99.90
9043;DHT22;4556;49.150;8.808;2022-09-03T01:41:26;17.20;99.90
9043;DHT22;4556;49.150;8.808;2022-09-03T01:44:23;16.80;99.90
9043;DHT22;4556;49.150;8.808;2022-09-03T01:47:03;17.00;99.90
9043;DHT22;4556;49.150;8.808;2022-09-03T01:49:39;16.80;99.90
9043;DHT22;4556;49.150;8.808;2022-09-03T01:52:11;17.00;99.90
9043;DHT22;4556;49.150;8.808;2022-09-03T01:54:51;16.70;99.90
9043;DHT22;4556;49.150;8.808;2022-09-03T01:57:40;16.60;99.90
9043;DHT22;4556;49.150;8.808;2022-09-03T02:00:13;16.60;99.90
9043;DHT22;4556;49.150;8.808;2022-09-03T02:02:42;16.60;99.90
9043;DHT22;4556;49.150;8.808;2022-09-03T02:05:15;16.60;99.90
9043;DHT22;4556;49.150;8.808;2022-09-03T02:07:44;16.70;99.90
9043;DHT22;4556;49.150;8.808;2022-09-03T02:10:14;16.80;99.90
9043;DHT22;4556;49.150;8.808;2022-09-03T02:12:46;16.80;99.90
9043;DHT22;4556;49.150;8.808;2022-09-03T02:15:20;16.50;99.90
9043;DHT22;4556;49.150;8.808;2022-09-03T02:17:49;16.40;99.90
9043;DHT22;4556;49.150;8.808;2022-09-03T02:20:21;14.20;99.90
9043;DHT22;4556;49.150;8.808;2022-09-03T02:22:49;16.40;99.90
9043;DHT22;4556;49.150;8.808;2022-09-03T02:25:16;16.40;99.90
9043;DHT22;4556;49.150;8.808;2022-09-03T02:27:44;16.30;99.90
9043;DHT22;4556;49.150;8.808;2022-09-03T02:30:11;16.30;99.90
9043;DHT22;4556;49.150;8.808;2022-09-03T02:32:40;16.20;99.90
9043;DHT22;4556;49.150;8.808;2022-09-03T02:35:08;16.10;99.90
9043;DHT22;4556;49.150;8.808;2022-09-03T02:37:37;16.10;99.90
9043;DHT22;4556;49.150;8.808;2022-09-03T02:40:05;16.10;99.90
9043;DHT22;4556;49.150;8.808;2022-09-03T02:42:35;16.30;99.90
9043;DHT22;4556;49.150;8.808;2022-09-03T02:45:09;16.30;99.90
9043;DHT22;4556;49.150;8.808;2022-09-03T02:47:42;16.30;99.90
9043;DHT22;4556;49.150;8.808;2022-09-03T02:50:10;16.20;99.90
9043;DHT22;4556;49.150;8.808;2022-09-03T02:52:37;16.20;99.90
9043;DHT22;4556;49.150;8.808;2022-09-03T02:55:05;17.70;99.90
9043;DHT22;4556;49.150;8.808;2022-09-03T02:57:32;15.90;99.90
9043;DHT22;4556;49.150;8.808;2022-09-03T02:59:59;15.90;99.90
9043;DHT22;4556;49.150;8.808;2022-09-03T03:02:26;16.00;99.90
9043;DHT22;4556;49.150;8.808;2022-09-03T03:04:54;16.00;99.90
9043;DHT22;4556;49.150;8.808;2022-09-03T03:07:21;16.00;99.90
9043;DHT22;4556;49.150;8.808;2022-09-03T03:09:48;17.60;99.90
9043;DHT22;4556;49.150;8.808;2022-09-03T03:12:16;15.90;99.90
9043;DHT22;4556;49.150;8.808;2022-09-03T03:14:44;17.50;99.90
9043;DHT22;4556;49.150;8.808;2022-09-03T03:17:11;15.80;99.90
9043;DHT22;4556;49.150;8.808;2022-09-03T03:19:38;15.70;99.90
9043;DHT22;4556;49.150;8.808;2022-09-03T03:22:06;15.80;99.90
9043;DHT22;4556;49.150;8.808;2022-09-03T03:24:33;15.90;99.90
9043;DHT22;4556;49.150;8.808;2022-09-03T03:27:01;15.70;99.90
9043;DHT22;4556;49.150;8.808;2022-09-03T03:29:32;16.10;99.90
9043;DHT22;4556;49.150;8.808;2022-09-03T03:32:00;15.90;99.90
9043;DHT22;4556;49.150;8.808;2022-09-03T03:34:27;16.20;99.90
9043;DHT22;4556;49.150;8.808;2022-09-03T03:36:54;15.80;99.90
9043;DHT22;4556;49.150;8.808;2022-09-03T03:39:22;15.90;99.90
9043;DHT22;4556;49.150;8.808;2022-09-03T03:41:55;15.90;99.90
9043;DHT22;4556;49.150;8.808;2022-09-03T03:44:39;15.80;99.90
9043;DHT22;4556;49.150;8.808;2022-09-03T03:47:06;15.70;99.90
9043;DHT22;4556;49.150;8.808;2022-09-03T03:49:33;15.70;99.90
9043;DHT22;4556;49.150;8.808;2022-09-03T03:52:00;15.80;99.90
9043;DHT22;4556;49.150;8.808;2022-09-03T03:54:30;15.90;99.90
9043;DHT22;4556;49.150;8.808;2022-09-03T03:56:57;15.70;99.90
9043;DHT22;4556;49.150;8.808;2022-09-03T03:59:24;17.00;99.90
9043;DHT22;4556;49.150;8.808;2022-09-03T04:01:54;15.80;99.90
9043;DHT22;4556;49.150;8.808;2022-09-03T04:04:21;15.80;99.90
9043;DHT22;4556;49.150;8.808;2022-09-03T04:06:48;15.70;99.90
9043;DHT22;4556;49.150;8.808;2022-09-03T04:09:14;15.70;99.90
9043;DHT22;4556;49.150;8.808;2022-09-03T04:11:43;15.70;99.90
9043;DHT22;4556;49.150;8.808;2022-09-03T04:14:10;15.60;99.90
9043;DHT22;4556;49.150;8.808;2022-09-03T04:16:37;15.60;99.90
9043;DHT22;4556;49.150;8.808;2022-09-03T04:19:05;15.90;99.90
9043;DHT22;4556;49.150;8.808;2022-09-03T04:21:32;15.80;99.90
9043;DHT22;4556;49.150;8.808;2022-09-03T04:23:59;15.80;99.90
9043;DHT22;4556;49.150;8.808;2022-09-03T04:26:28;15.80;99.90
9043;DHT22;4556;49.150;8.808;2022-09-03T04:28:58;15.80;99.90
9043;DHT22;4556;49.150;8.808;2022-09-03T04:31:26;15.80;99.90
9043;DHT22;4556;49.150;8.808;2022-09-03T04:33:53;15.70;99.90
9043;DHT22;4556;49.150;8.808;2022-09-03T04:36:21;15.60;99.90
9043;DHT22;4556;49.150;8.808;2022-09-03T04:38:49;15.60;99.90
9043;DHT22;4556;49.150;8.808;2022-09-03T04:41:19;15.60;99.90
9043;DHT22;4556;49.150;8.808;2022-09-03T04:43:47;15.60;99.90
9043;DHT22;4556;49.150;8.808;2022-09-03T04:46:18;15.60;99.90
9043;DHT22;4556;49.150;8.808;2022-09-03T04:48:47;15.80;99.90
9043;DHT22;4556;49.150;8.808;2022-09-03T04:51:17;15.80;99.90
9043;DHT22;4556;49.150;8.808;2022-09-03T04:53:46;15.80;99.90
9043;DHT22;4556;49.150;8.808;2022-09-03T04:56:15;15.60;99.90
9043;DHT22;4556;49.150;8.808;2022-09-03T04:58:42;15.60;99.90
9043;DHT22;4556;49.150;8.808;2022-09-03T05:01:09;15.50;99.90
9043;DHT22;4556;49.150;8.808;2022-09-03T05:03:37;15.50;99.90
9043;DHT22;4556;49.150;8.808;2022-09-03T05:06:05;15.70;99.90
9043;DHT22;4556;49.150;8.808;2022-09-03T05:08:41;15.60;99.90
9043;DHT22;4556;49.150;8.808;2022-09-03T05:11:09;15.50;99.90
9043;DHT22;4556;49.150;8.808;2022-09-03T05:13:37;15.40;99.90
9043;DHT22;4556;49.150;8.808;2022-09-03T05:16:06;15.40;99.90
9043;DHT22;4556;49.150;8.808;2022-09-03T05:18:33;15.40;99.90
9043;DHT22;4556;49.150;8.808;2022-09-03T05:21:04;15.60;99.90
9043;DHT22;4556;49.150;8.808;2022-09-03T05:23:34;15.60;99.90
9043;DHT22;4556;49.150;8.808;2022-09-03T05:26:04;15.70;99.90
9043;DHT22;4556;49.150;8.808;2022-09-03T05:28:34;15.60;99.90
9043;DHT22;4556;49.150;8.808;2022-09-03T05:31:04;15.60;99.90
9043;DHT22;4556;49.150;8.808;2022-09-03T05:33:33;15.70;99.90
9043;DHT22;4556;49.150;8.808;2022-09-03T05:36:02;15.70;99.90
9043;DHT22;4556;49.150;8.808;2022-09-03T05:38:30;15.80;99.90
9043;DHT22;4556;49.150;8.808;2022-09-03T05:40:58;15.80;99.90
9043;DHT22;4556;49.150;8.808;2022-09-03T05:43:25;15.90;99.90
9043;DHT22;4556;49.150;8.808;2022-09-03T05:45:56;16.30;99.90
9043;DHT22;4556;49.150;8.808;2022-09-03T05:48:24;16.00;99.90
9043;DHT22;4556;49.150;8.808;2022-09-03T05:50:58;16.10;99.90
9043;DHT22;4556;49.150;8.808;2022-09-03T05:53:27;16.00;99.90
9043;DHT22;4556;49.150;8.808;2022-09-03T05:55:54;16.20;99.90
9043;DHT22;4556;49.150;8.808;2022-09-03T05:58:22;16.10;99.90
9043;DHT22;4556;49.150;8.808;2022-09-03T06:00:49;16.00;99.90
9043;DHT22;4556;49.150;8.808;2022-09-03T06:03:16;16.00;99.90
9043;DHT22;4556;49.150;8.808;2022-09-03T06:05:49;16.10;99.90
9043;DHT22;4556;49.150;8.808;2022-09-03T06:08:16;16.10;99.90
9043;DHT22;4556;49.150;8.808;2022-09-03T06:10:44;16.10;99.90
9043;DHT22;4556;49.150;8.808;2022-09-03T06:13:12;17.70;99.90
9043;DHT22;4556;49.150;8.808;2022-09-03T06:15:39;16.30;99.90
9043;DHT22;4556;49.150;8.808;2022-09-03T06:18:06;16.40;99.90
9043;DHT22;4556;49.150;8.808;2022-09-03T06:20:33;16.50;99.90
9043;DHT22;4556;49.150;8.808;2022-09-03T06:22:59;16.50;99.90
9043;DHT22;4556;49.150;8.808;2022-09-03T06:25:26;16.90;99.90
9043;DHT22;4556;49.150;8.808;2022-09-03T06:27:55;16.60;99.90
9043;DHT22;4556;49.150;8.808;2022-09-03T06:30:22;16.60;99.90
9043;DHT22;4556;49.150;8.808;2022-09-03T06:32:51;16.50;99.90
9043;DHT22;4556;49.150;8.808;2022-09-03T06:35:18;16.80;99.90
9043;DHT22;4556;49.150;8.808;2022-09-03T06:37:46;16.60;99.90
9043;DHT22;4556;49.150;8.808;2022-09-03T06:40:13;16.70;99.90
9043;DHT22;4556;49.150;8.808;2022-09-03T06:42:56;16.90;99.90
9043;DHT22;4556;49.150;8.808;2022-09-03T06:45:29;16.90;99.90
9043;DHT22;4556;49.150;8.808;2022-09-03T06:47:58;18.80;99.90
9043;DHT22;4556;49.150;8.808;2022-09-03T06:50:25;16.80;99.90
9043;DHT22;4556;49.150;8.808;2022-09-03T06:52:53;16.90;99.90
9043;DHT22;4556;49.150;8.808;2022-09-03T06:55:23;16.90;99.90
9043;DHT22;4556;49.150;8.808;2022-09-03T06:57:56;17.00;99.90
9043;DHT22;4556;49.150;8.808;2022-09-03T07:00:24;16.90;99.90
9043;DHT22;4556;49.150;8.808;2022-09-03T07:02:55;17.00;99.90
9043;DHT22;4556;49.150;8.808;2022-09-03T07:05:24;17.60;99.90
9043;DHT22;4556;49.150;8.808;2022-09-03T07:07:53;16.90;99.90
9043;DHT22;4556;49.150;8.808;2022-09-03T07:10:20;17.10;99.90
9043;DHT22;4556;49.150;8.808;2022-09-03T07:12:47;16.80;99.90
9043;DHT22;4556;49.150;8.808;2022-09-03T07:15:16;16.80;99.90
9043;DHT22;4556;49.150;8.808;2022-09-03T07:17:42;17.10;99.90
9043;DHT22;4556;49.150;8.808;2022-09-03T07:20:10;16.80;99.90
9043;DHT22;4556;49.150;8.808;2022-09-03T07:22:37;17.00;99.90
9043;DHT22;4556;49.150;8.808;2022-09-03T07:25:05;17.10;99.90
9043;DHT22;4556;49.150;8.808;2022-09-03T07:27:33;17.10;99.90
9043;DHT22;4556;49.150;8.808;2022-09-03T07:30:01;17.10;99.90
9043;DHT22;4556;49.150;8.808;2022-09-03T07:32:29;17.20;99.90
9043;DHT22;4556;49.150;8.808;2022-09-03T07:34:56;17.20;99.90
9043;DHT22;4556;49.150;8.808;2022-09-03T07:37:24;17.20;99.90
9043;DHT22;4556;49.150;8.808;2022-09-03T07:39:51;17.20;99.90
9043;DHT22;4556;49.150;8.808;2022-09-03T07:42:18;19.00;99.90
9043;DHT22;4556;49.150;8.808;2022-09-03T07:44:46;17.40;99.90
9043;DHT22;4556;49.150;8.808;2022-09-03T07:47:13;17.50;99.90
9043;DHT22;4556;49.150;8.808;2022-09-03T07:49:42;17.60;99.90
9043;DHT22;4556;49.150;8.808;2022-09-03T07:52:09;18.00;99.90
9043;DHT22;4556;49.150;8.808;2022-09-03T07:54:37;18.00;99.90
9043;DHT22;4556;49.150;8.808;2022-09-03T07:57:05;18.20;99.90
9043;DHT22;4556;49.150;8.808;2022-09-03T07:59:32;18.10;99.90
9043;DHT22;4556;49.150;8.808;2022-09-03T08:02:00;18.00;99.90
9043;DHT22;4556;49.150;8.808;2022-09-03T08:04:28;18.00;99.90
9043;DHT22;4556;49.150;8.808;2022-09-03T08:06:57;18.10;99.90
9043;DHT22;4556;49.150;8.808;2022-09-03T08:09:24;18.10;99.90
9043;DHT22;4556;49.150;8.808;2022-09-03T08:11:52;17.10;99.90
9043;DHT22;4556;49.150;8.808;2022-09-03T08:14:19;18.10;99.90
9043;DHT22;4556;49.150;8.808;2022-09-03T08:16:46;18.00;99.90
9043;DHT22;4556;49.150;8.808;2022-09-03T08:19:14;18.00;99.90
9043;DHT22;4556;49.150;8.808;2022-09-03T08:21:43;17.90;99.90
9043;DHT22;4556;49.150;8.808;2022-09-03T08:24:11;17.70;99.90
9043;DHT22;4556;49.150;8.808;2022-09-03T08:26:41;17.60;99.90
9043;DHT22;4556;49.150;8.808;2022-09-03T08:29:08;18.10;99.90
9043;DHT22;4556;49.150;8.808;2022-09-03T08:31:35;17.90;99.90
9043;DHT22;4556;49.150;8.808;2022-09-03T08:34:05;17.80;99.90
9043;DHT22;4556;49.150;8.808;2022-09-03T08:36:34;17.90;99.90
9043;DHT22;4556;49.150;8.808;2022-09-03T08:39:03;18.00;99.90
9043;DHT22;4556;49.150;8.808;2022-09-03T08:41:42;18.00;99.90
9043;DHT22;4556;49.150;8.808;2022-09-03T08:44:20;18.00;99.90
9043;DHT22;4556;49.150;8.808;2022-09-03T08:46:53;18.10;99.90
9043;DHT22;4556;49.150;8.808;2022-09-03T08:49:26;18.00;99.90
9043;DHT22;4556;49.150;8.808;2022-09-03T08:51:57;17.70;99.90
9043;DHT22;4556;49.150;8.808;2022-09-03T08:54:29;17.70;99.90
9043;DHT22;4556;49.150;8.808;2022-09-03T08:57:00;18.00;99.90
9043;DHT22;4556;49.150;8.808;2022-09-03T08:59:34;17.70;99.90
9043;DHT22;4556;49.150;8.808;2022-09-03T09:02:12;17.70;99.90
9043;DHT22;4556;49.150;8.808;2022-09-03T09:04:54;17.50;99.90
9043;DHT22;4556;49.150;8.808;2022-09-03T09:07:28;17.20;99.90
9043;DHT22;4556;49.150;8.808;2022-09-03T09:10:02;17.30;99.90
9043;DHT22;4556;49.150;8.808;2022-09-03T09:12:44;17.30;99.90
9043;DHT22;4556;49.150;8.808;2022-09-03T09:15:19;17.30;99.90
9043;DHT22;4556;49.150;8.808;2022-09-03T09:18:08;17.60;99.90
9043;DHT22;4556;49.150;8.808;2022-09-03T09:20:41;17.40;99.90
9043;DHT22;4556;49.150;8.808;2022-09-03T09:23:13;16.60;99.90
9043;DHT22;4556;49.150;8.808;2022-09-03T09:25:46;18.90;99.90
9043;DHT22;4556;49.150;8.808;2022-09-03T09:28:18;17.70;99.90
9043;DHT22;4556;49.150;8.808;2022-09-03T09:30:48;18.00;99.90
9043;DHT22;4556;49.150;8.808;2022-09-03T09:33:16;18.30;99.90
9043;DHT22;4556;49.150;8.808;2022-09-03T09:35:45;18.50;99.90
9043;DHT22;4556;49.150;8.808;2022-09-03T09:38:13;18.80;99.90
9043;DHT22;4556;49.150;8.808;2022-09-03T09:40:41;19.00;99.90
9043;DHT22;4556;49.150;8.808;2022-09-03T09:43:10;18.90;99.90
9043;DHT22;4556;49.150;8.808;2022-09-03T09:45:42;18.80;99.90
9043;DHT22;4556;49.150;8.808;2022-09-03T09:48:16;18.90;99.90
9043;DHT22;4556;49.150;8.808;2022-09-03T09:50:44;19.00;99.90
9043;DHT22;4556;49.150;8.808;2022-09-03T09:53:11;19.50;99.90
9043;DHT22;4556;49.150;8.808;2022-09-03T09:55:53;19.50;99.90
9043;DHT22;4556;49.150;8.808;2022-09-03T09:58:25;19.80;99.90
9043;DHT22;4556;49.150;8.808;2022-09-03T10:01:03;20.30;99.90
9043;DHT22;4556;49.150;8.808;2022-09-03T10:03:40;20.00;99.90
9043;DHT22;4556;49.150;8.808;2022-09-03T10:06:14;20.10;99.90
9043;DHT22;4556;49.150;8.808;2022-09-03T10:09:07;20.50;99.90
9043;DHT22;4556;49.150;8.808;2022-09-03T10:11:36;20.10;99.90
9043;DHT22;4556;49.150;8.808;2022-09-03T10:14:09;20.10;99.90
9043;DHT22;4556;49.150;8.808;2022-09-03T10:16:44;20.00;99.90
9043;DHT22;4556;49.150;8.808;2022-09-03T10:19:17;20.00;99.90
9043;DHT22;4556;49.150;8.808;2022-09-03T10:21:49;20.10;99.90
9043;DHT22;4556;49.150;8.808;2022-09-03T10:24:35;20.10;99.90
9043;DHT22;4556;49.150;8.808;2022-09-03T10:27:06;20.20;99.90
9043;DHT22;4556;49.150;8.808;2022-09-03T10:29:37;20.70;99.90
9043;DHT22;4556;49.150;8.808;2022-09-03T10:32:29;20.30;99.90
9043;DHT22;4556;49.150;8.808;2022-09-03T10:35:05;20.30;99.90
9043;DHT22;4556;49.150;8.808;2022-09-03T10:37:39;20.40;99.90
9043;DHT22;4556;49.150;8.808;2022-09-03T10:40:21;20.90;99.90
9043;DHT22;4556;49.150;8.808;2022-09-03T10:43:05;21.00;99.90
9043;DHT22;4556;49.150;8.808;2022-09-03T10:45:38;20.40;99.90
9043;DHT22;4556;49.150;8.808;2022-09-03T10:48:38;20.40;99.90
9043;DHT22;4556;49.150;8.808;2022-09-03T10:51:15;20.30;99.90
9043;DHT22;4556;49.150;8.808;2022-09-03T10:53:59;20.40;99.90
9043;DHT22;4556;49.150;8.808;2022-09-03T10:56:32;20.50;99.90
9043;DHT22;4556;49.150;8.808;2022-09-03T10:59:16;20.50;99.90
9043;DHT22;4556;49.150;8.808;2022-09-03T11:01:56;20.70;99.90
9043;DHT22;4556;49.150;8.808;2022-09-03T11:04:34;20.80;99.90
9043;DHT22;4556;49.150;8.808;2022-09-03T11:07:07;20.90;99.90
9043;DHT22;4556;49.150;8.808;2022-09-03T11:09:38;21.10;99.90
9043;DHT22;4556;49.150;8.808;2022-09-03T11:12:11;21.40;99.90
9043;DHT22;4556;49.150;8.808;2022-09-03T11:14:41;21.50;99.90
9043;DHT22;4556;49.150;8.808;2022-09-03T11:17:14;21.50;99.90
9043;DHT22;4556;49.150;8.808;2022-09-03T11:19:49;21.20;99.90
9043;DHT22;4556;49.150;8.808;2022-09-03T11:22:19;21.30;99.90
9043;DHT22;4556;49.150;8.808;2022-09-03T11:24:53;21.20;99.90
9043;DHT22;4556;49.150;8.808;2022-09-03T11:27:33;21.30;99.90
9043;DHT22;4556;49.150;8.808;2022-09-03T11:30:04;21.20;99.90
9043;DHT22;4556;49.150;8.808;2022-09-03T11:32:44;21.30;99.90
9043;DHT22;4556;49.150;8.808;2022-09-03T11:35:26;21.10;99.90
9043;DHT22;4556;49.150;8.808;2022-09-03T11:37:57;21.00;99.90
9043;DHT22;4556;49.150;8.808;2022-09-03T11:40:32;20.90;99.90
9043;DHT22;4556;49.150;8.808;2022-09-03T11:43:13;20.80;99.90
9043;DHT22;4556;49.150;8.808;2022-09-03T11:46:02;20.60;99.90
9043;DHT22;4556;49.150;8.808;2022-09-03T11:48:38;20.00;99.90
9043;DHT22;4556;49.150;8.808;2022-09-03T11:51:19;20.90;99.90
9043;DHT22;4556;49.150;8.808;2022-09-03T11:53:53;21.10;99.90
9043;DHT22;4556;49.150;8.808;2022-09-03T11:56:21;21.20;99.90
9043;DHT22;4556;49.150;8.808;2022-09-03T12:01:45;21.30;99.90
9043;DHT22;4556;49.150;8.808;2022-09-03T12:04:19;21.20;99.90
9043;DHT22;4556;49.150;8.808;2022-09-03T12:07:03;21.20;99.90
9043;DHT22;4556;49.150;8.808;2022-09-03T12:09:55;21.30;99.90
9043;DHT22;4556;49.150;8.808;2022-09-03T12:12:39;21.40;99.90
9043;DHT22;4556;49.150;8.808;2022-09-03T12:15:19;21.50;99.90
9043;DHT22;4556;49.150;8.808;2022-09-03T12:17:52;21.70;99.90
9043;DHT22;4556;49.150;8.808;2022-09-03T12:20:33;21.60;99.90
9043;DHT22;4556;49.150;8.808;2022-09-03T12:23:01;21.60;99.90
9043;DHT22;4556;49.150;8.808;2022-09-03T12:25:29;21.60;99.90
9043;DHT22;4556;49.150;8.808;2022-09-03T12:27:58;21.90;99.90
9043;DHT22;4556;49.150;8.808;2022-09-03T12:30:28;22.10;99.90
9043;DHT22;4556;49.150;8.808;2022-09-03T12:33:03;22.10;99.90
9043;DHT22;4556;49.150;8.808;2022-09-03T12:35:31;22.10;99.90
9043;DHT22;4556;49.150;8.808;2022-09-03T12:37:57;22.30;99.90
9043;DHT22;4556;49.150;8.808;2022-09-03T12:40:28;22.40;99.90
9043;DHT22;4556;49.150;8.808;2022-09-03T12:43:11;22.40;99.90
9043;DHT22;4556;49.150;8.808;2022-09-03T12:45:43;22.50;99.90
9043;DHT22;4556;49.150;8.808;2022-09-03T12:48:13;22.50;99.90
9043;DHT22;4556;49.150;8.808;2022-09-03T12:50:42;22.40;99.90
9043;DHT22;4556;49.150;8.808;2022-09-03T12:53:11;22.40;99.90
9043;DHT22;4556;49.150;8.808;2022-09-03T12:55:43;22.50;99.90
9043;DHT22;4556;49.150;8.808;2022-09-03T12:58:15;22.50;99.90
9043;DHT22;4556;49.150;8.808;2022-09-03T13:00:45;22.60;99.90
9043;DHT22;4556;49.150;8.808;2022-09-03T13:03:17;22.40;99.90
9043;DHT22;4556;49.150;8.808;2022-09-03T13:05:49;22.30;99.90
9043;DHT22;4556;49.150;8.808;2022-09-03T13:08:21;22.20;99.90
9043;DHT22;4556;49.150;8.808;2022-09-03T13:10:54;22.00;99.90
9043;DHT22;4556;49.150;8.808;2022-09-03T13:13:23;22.00;99.90
9043;DHT22;4556;49.150;8.808;2022-09-03T13:16:21;22.00;99.90
9043;DHT22;4556;49.150;8.808;2022-09-03T13:18:58;22.10;99.90
9043;DHT22;4556;49.150;8.808;2022-09-03T13:21:38;22.10;99.90
9043;DHT22;4556;49.150;8.808;2022-09-03T13:24:19;22.10;99.90
9043;DHT22;4556;49.150;8.808;2022-09-03T13:26:56;22.30;99.90
9043;DHT22;4556;49.150;8.808;2022-09-03T13:29:37;22.60;99.90
9043;DHT22;4556;49.150;8.808;2022-09-03T13:32:13;22.80;99.90
9043;DHT22;4556;49.150;8.808;2022-09-03T13:34:49;22.70;99.90
9043;DHT22;4556;49.150;8.808;2022-09-03T13:37:25;22.70;99.90
9043;DHT22;4556;49.150;8.808;2022-09-03T13:39:56;22.60;99.90
9043;DHT22;4556;49.150;8.808;2022-09-03T13:42:30;22.70;99.90
9043;DHT22;4556;49.150;8.808;2022-09-03T13:45:04;22.60;99.90
9043;DHT22;4556;49.150;8.808;2022-09-03T13:47:38;22.70;99.90
9043;DHT22;4556;49.150;8.808;2022-09-03T13:50:28;22.60;99.90
9043;DHT22;4556;49.150;8.808;2022-09-03T13:52:58;22.30;99.90
9043;DHT22;4556;49.150;8.808;2022-09-03T13:55:41;22.20;99.90
9043;DHT22;4556;49.150;8.808;2022-09-03T13:58:23;22.10;99.90
9043;DHT22;4556;49.150;8.808;2022-09-03T14:01:03;22.20;99.90
9043;DHT22;4556;49.150;8.808;2022-09-03T14:03:35;22.10;99.90
9043;DHT22;4556;49.150;8.808;2022-09-03T14:06:08;22.10;99.90
9043;DHT22;4556;49.150;8.808;2022-09-03T14:08:49;22.20;99.90
9043;DHT22;4556;49.150;8.808;2022-09-03T14:11:25;22.40;99.90
9043;DHT22;4556;49.150;8.808;2022-09-03T14:14:05;22.10;99.90
9043;DHT22;4556;49.150;8.808;2022-09-03T14:16:38;22.00;99.90
9043;DHT22;4556;49.150;8.808;2022-09-03T14:19:11;21.90;99.90
9043;DHT22;4556;49.150;8.808;2022-09-03T14:21:45;22.00;99.90
9043;DHT22;4556;49.150;8.808;2022-09-03T14:24:15;21.80;99.90
9043;DHT22;4556;49.150;8.808;2022-09-03T14:26:51;21.80;99.90
9043;DHT22;4556;49.150;8.808;2022-09-03T14:29:24;22.00;99.90
9043;DHT22;4556;49.150;8.808;2022-09-03T14:32:05;21.80;99.90
9043;DHT22;4556;49.150;8.808;2022-09-03T14:34:42;21.90;99.90
9043;DHT22;4556;49.150;8.808;2022-09-03T14:37:30;20.30;99.90
9043;DHT22;4556;49.150;8.808;2022-09-03T14:40:21;21.40;99.90
9043;DHT22;4556;49.150;8.808;2022-09-03T14:43:51;22.10;99.90
9043;DHT22;4556;49.150;8.808;2022-09-03T15:07:48;21.90;99.90
9043;DHT22;4556;49.150;8.808;2022-09-03T15:10:41;21.60;99.90
9043;DHT22;4556;49.150;8.808;2022-09-03T15:13:31;21.70;99.90
9043;DHT22;4556;49.150;8.808;2022-09-03T15:25:04;21.70;99.90
9043;DHT22;4556;49.150;8.808;2022-09-03T15:28:01;21.60;99.90
9043;DHT22;4556;49.150;8.808;2022-09-03T15:30:35;21.40;99.90
9043;DHT22;4556;49.150;8.808;2022-09-03T15:33:12;21.30;99.90
9043;DHT22;4556;49.150;8.808;2022-09-03T15:35:56;21.00;99.90
9043;DHT22;4556;49.150;8.808;2022-09-03T15:38:38;20.70;99.90
9043;DHT22;4556;49.150;8.808;2022-09-03T15:41:16;20.80;99.90
9043;DHT22;4556;49.150;8.808;2022-09-03T15:43:48;20.70;99.90
9043;DHT22;4556;49.150;8.808;2022-09-03T15:46:45;20.70;99.90
9043;DHT22;4556;49.150;8.808;2022-09-03T15:49:26;20.70;99.90
9043;DHT22;4556;49.150;8.808;2022-09-03T15:52:05;20.60;99.90
9043;DHT22;4556;49.150;8.808;2022-09-03T15:54:39;20.50;99.90
9043;DHT22;4556;49.150;8.808;2022-09-03T15:57:13;20.70;99.90
9043;DHT22;4556;49.150;8.808;2022-09-03T15:59:50;20.70;99.90
9043;DHT22;4556;49.150;8.808;2022-09-03T16:02:24;20.60;99.90
9043;DHT22;4556;49.150;8.808;2022-09-03T16:05:02;20.70;99.90
9043;DHT22;4556;49.150;8.808;2022-09-03T16:07:52;20.60;99.90
9043;DHT22;4556;49.150;8.808;2022-09-03T16:10:35;20.60;99.90
9043;DHT22;4556;49.150;8.808;2022-09-03T16:13:13;20.50;99.90
9043;DHT22;4556;49.150;8.808;2022-09-03T16:15:46;20.50;99.90
9043;DHT22;4556;49.150;8.808;2022-09-03T16:18:21;20.30;99.90
9043;DHT22;4556;49.150;8.808;2022-09-03T16:20:55;20.40;99.90
9043;DHT22;4556;49.150;8.808;2022-09-03T16:23:26;20.30;99.90
9043;DHT22;4556;49.150;8.808;2022-09-03T16:25:59;20.40;99.90
9043;DHT22;4556;49.150;8.808;2022-09-03T16:28:34;20.50;99.90
9043;DHT22;4556;49.150;8.808;2022-09-03T16:31:11;20.50;99.90
9043;DHT22;4556;49.150;8.808;2022-09-03T16:33:46;20.70;99.90
9043;DHT22;4556;49.150;8.808;2022-09-03T16:36:31;20.50;99.90
9043;DHT22;4556;49.150;8.808;2022-09-03T16:39:04;20.60;99.90
9043;DHT22;4556;49.150;8.808;2022-09-03T16:41:39;20.00;99.90
9043;DHT22;4556;49.150;8.808;2022-09-03T16:44:16;20.50;99.90
9043;DHT22;4556;49.150;8.808;2022-09-03T16:46:52;20.70;99.90
9043;DHT22;4556;49.150;8.808;2022-09-03T16:49:39;20.80;99.90
9043;DHT22;4556;49.150;8.808;2022-09-03T16:52:15;20.60;99.90
9043;DHT22;4556;49.150;8.808;2022-09-03T16:54:59;20.80;99.90
9043;DHT22;4556;49.150;8.808;2022-09-03T16:57:40;20.80;99.90
9043;DHT22;4556;49.150;8.808;2022-09-03T17:00:13;20.70;99.90
9043;DHT22;4556;49.150;8.808;2022-09-03T17:03:13;20.80;99.90
9043;DHT22;4556;49.150;8.808;2022-09-03T17:06:12;20.60;99.90
9043;DHT22;4556;49.150;8.808;2022-09-03T17:08:48;20.60;99.90
9043;DHT22;4556;49.150;8.808;2022-09-03T17:11:58;20.40;99.90
9043;DHT22;4556;49.150;8.808;2022-09-03T17:14:50;20.40;99.90
9043;DHT22;4556;49.150;8.808;2022-09-03T17:17:30;20.60;99.90
9043;DHT22;4556;49.150;8.808;2022-09-03T17:20:06;20.70;99.90